Cross Lake Township, Maine
Current Conditions -  °F | °C
As of 8:53 PM on Friday 19 Dec 2014 (Local Time) from KFVE Reporting Station
Clear Clear  
Wind Chill:   Ceiling: Unl
Heat Index: 16°   Visibility: 10mi
Dew Point: 13°   Wind: 16mph
Humidity: 88%   Direction: 330°NNW
Pressure: 30.05"   Gusts: NA
Location:  47.1619°N, 68.2532°W
Report Text: KFVE 200153Z AUTO 33014KT 10SM CLR M09/M11 A3005 RMK AO2 SLP194 T10891106
Loading
Personal Weather Stations






























Interactive Weather Map New forecast layout! Learn more

10-Day Weather Forecast

Advertisements
Track Severe Weather on mobile